Sligo Airport - TAF
(Terminal Area Forecast)

Issued at 06:51 UTC on Sat. 28-Nov-20

--- METARS(SA) ---

METAR EISG(SLIGO) 280630Z AUTO 10003KT CAVOK 02/01 Q1015 =

--- TAFS() ---

TAF EISG(SLIGO) 280500Z 2806/2815 VRB03KT 9999 FEW020 SCT040 PROB30

TEMPO 2806/2808 3000 BR =

--- SIGMETS(WS) ---

IE - No VALID SIGMETS/Warnings FOR THIS AREA

--- SIGMETS Volcanic(WV) ---

IE - No VALID SIGMETS/Warnings FOR THIS AREA

--- SIGMETS(WS) ---

UK - No VALID SIGMETS/Warnings FOR THIS AREA

Sligo Airport - METARs

Latest METARs for Sligo and Donegal Airports - updated every 30 mins